sensor_id;sensor_type;location;lat;lon;timestamp;pressure;altitude;pressure_sealevel;temperature;humidity
73085;BME280;62974;49.460;10.892;2023-03-04T00:00:28;98274.00;;;1.36;72.39
73085;BME280;62974;49.460;10.892;2023-03-04T00:02:56;98271.38;;;1.36;71.63
73085;BME280;62974;49.460;10.892;2023-03-04T00:05:23;98280.28;;;1.35;71.89
73085;BME280;62974;49.460;10.892;2023-03-04T00:07:51;98285.38;;;0.85;73.69
73085;BME280;62974;49.460;10.892;2023-03-04T00:10:18;98282.94;;;1.35;72.65
73085;BME280;62974;49.460;10.892;2023-03-04T00:12:47;98274.41;;;1.31;72.06
73085;BME280;62974;49.460;10.892;2023-03-04T00:15:15;98274.59;;;1.39;71.70
73085;BME280;62974;49.460;10.892;2023-03-04T00:17:42;98275.69;;;1.37;72.29
73085;BME280;62974;49.460;10.892;2023-03-04T00:20:12;98276.47;;;1.28;71.53
73085;BME280;62974;49.460;10.892;2023-03-04T00:22:39;98277.78;;;1.33;71.31
73085;BME280;62974;49.460;10.892;2023-03-04T00:25:07;98273.16;;;1.35;71.72
73085;BME280;62974;49.460;10.892;2023-03-04T00:27:34;98273.97;;;1.26;72.02
73085;BME280;62974;49.460;10.892;2023-03-04T00:30:04;98270.22;;;1.29;71.25
73085;BME280;62974;49.460;10.892;2023-03-04T00:32:32;98274.63;;;1.19;71.54
73085;BME280;62974;49.460;10.892;2023-03-04T00:34:59;98276.56;;;1.17;71.95
73085;BME280;62974;49.460;10.892;2023-03-04T00:37:27;98271.84;;;1.20;71.68
73085;BME280;62974;49.460;10.892;2023-03-04T00:39:54;98265.97;;;1.17;72.24
73085;BME280;62974;49.460;10.892;2023-03-04T00:42:22;98272.69;;;1.21;71.65
73085;BME280;62974;49.460;10.892;2023-03-04T00:44:49;98275.59;;;1.18;71.39
73085;BME280;62974;49.460;10.892;2023-03-04T00:47:18;98275.66;;;1.07;70.98
73085;BME280;62974;49.460;10.892;2023-03-04T00:49:46;98285.72;;;1.13;71.84
73085;BME280;62974;49.460;10.892;2023-03-04T00:52:13;98287.47;;;1.03;71.98
73085;BME280;62974;49.460;10.892;2023-03-04T00:54:48;98283.72;;;1.05;72.23
73085;BME280;62974;49.460;10.892;2023-03-04T00:57:16;98287.38;;;0.93;73.08
73085;BME280;62974;49.460;10.892;2023-03-04T00:59:43;98285.69;;;0.51;74.89
73085;BME280;62974;49.460;10.892;2023-03-04T01:02:11;98282.09;;;0.93;72.85
73085;BME280;62974;49.460;10.892;2023-03-04T01:04:40;98283.22;;;0.90;73.51
73085;BME280;62974;49.460;10.892;2023-03-04T01:07:08;98278.78;;;0.91;72.70
73085;BME280;62974;49.460;10.892;2023-03-04T01:09:36;98287.19;;;0.85;72.86
73085;BME280;62974;49.460;10.892;2023-03-04T01:12:03;98269.84;;;0.92;72.84
73085;BME280;62974;49.460;10.892;2023-03-04T01:14:31;98276.03;;;0.81;73.31
73085;BME280;62974;49.460;10.892;2023-03-04T01:16:58;98271.34;;;0.85;74.22
73085;BME280;62974;49.460;10.892;2023-03-04T01:19:26;98272.81;;;0.78;73.62
73085;BME280;62974;49.460;10.892;2023-03-04T01:21:55;98262.72;;;0.83;72.72
73085;BME280;62974;49.460;10.892;2023-03-04T01:24:22;98263.75;;;0.91;72.19
73085;BME280;62974;49.460;10.892;2023-03-04T01:26:50;98261.59;;;0.85;72.11
73085;BME280;62974;49.460;10.892;2023-03-04T01:29:17;98274.34;;;0.80;71.95
73085;BME280;62974;49.460;10.892;2023-03-04T01:31:45;98260.25;;;0.91;72.31
73085;BME280;62974;49.460;10.892;2023-03-04T01:34:12;98259.50;;;0.79;72.36
73085;BME280;62974;49.460;10.892;2023-03-04T01:36:40;98263.66;;;0.82;72.23
73085;BME280;62974;49.460;10.892;2023-03-04T01:39:09;98260.56;;;0.77;72.22
73085;BME280;62974;49.460;10.892;2023-03-04T01:41:37;98266.81;;;0.76;72.12
73085;BME280;62974;49.460;10.892;2023-03-04T01:44:04;98265.00;;;0.76;71.88
73085;BME280;62974;49.460;10.892;2023-03-04T01:46:32;98251.09;;;0.74;71.69
73085;BME280;62974;49.460;10.892;2023-03-04T01:49:00;98246.31;;;0.68;71.78
73085;BME280;62974;49.460;10.892;2023-03-04T01:51:27;98254.97;;;0.70;71.44
73085;BME280;62974;49.460;10.892;2023-03-04T01:53:55;98245.53;;;0.77;71.44
73085;BME280;62974;49.460;10.892;2023-03-04T01:56:27;98247.72;;;0.72;72.04
73085;BME280;62974;49.460;10.892;2023-03-04T01:59:09;98242.59;;;0.71;71.90
73085;BME280;62974;49.460;10.892;2023-03-04T02:01:38;98251.66;;;0.57;72.10
73085;BME280;62974;49.460;10.892;2023-03-04T02:04:06;98243.22;;;0.63;72.01
73085;BME280;62974;49.460;10.892;2023-03-04T02:06:35;98244.31;;;0.61;71.46
73085;BME280;62974;49.460;10.892;2023-03-04T02:09:03;98240.38;;;0.55;72.21
73085;BME280;62974;49.460;10.892;2023-03-04T02:11:33;98233.16;;;0.57;71.86
73085;BME280;62974;49.460;10.892;2023-03-04T02:14:02;98240.50;;;0.54;72.64
73085;BME280;62974;49.460;10.892;2023-03-04T02:16:30;98242.56;;;0.50;71.67
73085;BME280;62974;49.460;10.892;2023-03-04T02:18:58;98236.19;;;0.53;72.08
73085;BME280;62974;49.460;10.892;2023-03-04T02:21:27;98236.31;;;0.51;71.79
73085;BME280;62974;49.460;10.892;2023-03-04T02:24:03;98230.94;;;0.41;71.45
73085;BME280;62974;49.460;10.892;2023-03-04T02:26:34;98232.84;;;0.51;71.45
73085;BME280;62974;49.460;10.892;2023-03-04T02:29:03;98227.81;;;0.47;71.74
73085;BME280;62974;49.460;10.892;2023-03-04T02:31:32;98223.88;;;0.42;72.44
73085;BME280;62974;49.460;10.892;2023-03-04T02:34:02;98215.84;;;0.43;72.15
73085;BME280;62974;49.460;10.892;2023-03-04T02:36:31;98220.19;;;0.33;72.08
73085;BME280;62974;49.460;10.892;2023-03-04T02:39:02;98223.91;;;0.31;72.18
73085;BME280;62974;49.460;10.892;2023-03-04T02:41:31;98220.31;;;0.32;71.82
73085;BME280;62974;49.460;10.892;2023-03-04T02:44:00;98214.63;;;0.16;71.51
73085;BME280;62974;49.460;10.892;2023-03-04T02:46:27;98210.97;;;-0.15;73.19
73085;BME280;62974;49.460;10.892;2023-03-04T02:48:55;98216.47;;;-0.07;74.58
73085;BME280;62974;49.460;10.892;2023-03-04T02:51:22;98214.22;;;0.20;72.49
73085;BME280;62974;49.460;10.892;2023-03-04T02:53:50;98206.31;;;0.20;72.19
73085;BME280;62974;49.460;10.892;2023-03-04T02:56:17;98211.34;;;0.23;72.59
73085;BME280;62974;49.460;10.892;2023-03-04T02:58:45;98214.75;;;-0.40;75.72
73085;BME280;62974;49.460;10.892;2023-03-04T03:01:14;98212.25;;;-0.64;77.33
73085;BME280;62974;49.460;10.892;2023-03-04T03:03:41;98200.13;;;0.10;74.16
73085;BME280;62974;49.460;10.892;2023-03-04T03:06:09;98201.28;;;0.17;73.39
73085;BME280;62974;49.460;10.892;2023-03-04T03:08:36;98195.38;;;0.25;72.99
73085;BME280;62974;49.460;10.892;2023-03-04T03:11:04;98198.44;;;0.09;73.26
73085;BME280;62974;49.460;10.892;2023-03-04T03:13:34;98199.84;;;0.13;73.04
73085;BME280;62974;49.460;10.892;2023-03-04T03:16:01;98202.50;;;0.13;72.87
73085;BME280;62974;49.460;10.892;2023-03-04T03:18:30;98203.53;;;0.22;73.09
73085;BME280;62974;49.460;10.892;2023-03-04T03:20:58;98207.06;;;0.11;73.09
73085;BME280;62974;49.460;10.892;2023-03-04T03:23:25;98208.16;;;0.09;72.83
73085;BME280;62974;49.460;10.892;2023-03-04T03:25:53;98213.78;;;0.04;73.83
73085;BME280;62974;49.460;10.892;2023-03-04T03:28:20;98214.38;;;-0.24;75.25
73085;BME280;62974;49.460;10.892;2023-03-04T03:30:47;98207.22;;;-0.02;73.56
73085;BME280;62974;49.460;10.892;2023-03-04T03:33:15;98220.25;;;-0.43;75.70
73085;BME280;62974;49.460;10.892;2023-03-04T03:35:44;98210.78;;;-0.34;74.38
73085;BME280;62974;49.460;10.892;2023-03-04T03:38:11;98214.97;;;-0.21;74.89
73085;BME280;62974;49.460;10.892;2023-03-04T03:40:39;98213.66;;;-0.37;74.97
73085;BME280;62974;49.460;10.892;2023-03-04T03:43:06;98213.50;;;-0.14;74.32
73085;BME280;62974;49.460;10.892;2023-03-04T03:45:34;98208.34;;;-0.15;74.42
73085;BME280;62974;49.460;10.892;2023-03-04T03:48:02;98208.69;;;-0.09;73.61
73085;BME280;62974;49.460;10.892;2023-03-04T03:50:30;98208.78;;;0.01;73.99
73085;BME280;62974;49.460;10.892;2023-03-04T03:52:59;98200.91;;;-0.10;74.57
73085;BME280;62974;49.460;10.892;2023-03-04T03:55:27;98209.41;;;-0.07;74.03
73085;BME280;62974;49.460;10.892;2023-03-04T03:57:54;98220.53;;;-0.03;73.66
73085;BME280;62974;49.460;10.892;2023-03-04T04:00:22;98218.00;;;0.07;73.53
73085;BME280;62974;49.460;10.892;2023-03-04T04:02:50;98220.16;;;0.02;73.78
73085;BME280;62974;49.460;10.892;2023-03-04T04:05:18;98218.97;;;0.06;73.80
73085;BME280;62974;49.460;10.892;2023-03-04T04:07:46;98231.63;;;-0.31;74.50
73085;BME280;62974;49.460;10.892;2023-03-04T04:10:15;98239.38;;;-1.30;80.81
73085;BME280;62974;49.460;10.892;2023-03-04T04:12:42;98222.22;;;-0.56;79.13
73085;BME280;62974;49.460;10.892;2023-03-04T04:15:11;98244.63;;;-1.41;82.33
73085;BME280;62974;49.460;10.892;2023-03-04T04:17:38;98241.09;;;-1.07;81.75
73085;BME280;62974;49.460;10.892;2023-03-04T04:20:07;98246.00;;;-1.13;81.18
73085;BME280;62974;49.460;10.892;2023-03-04T04:22:35;98241.41;;;-1.33;84.63
73085;BME280;62974;49.460;10.892;2023-03-04T04:25:03;98254.22;;;-2.35;89.49
73085;BME280;62974;49.460;10.892;2023-03-04T04:27:32;98250.38;;;-1.95;91.87
73085;BME280;62974;49.460;10.892;2023-03-04T04:30:00;98251.16;;;-2.42;93.06
73085;BME280;62974;49.460;10.892;2023-03-04T04:32:27;98250.88;;;-1.90;92.63
73085;BME280;62974;49.460;10.892;2023-03-04T04:34:55;98252.50;;;-2.23;93.02
73085;BME280;62974;49.460;10.892;2023-03-04T04:37:22;98256.69;;;-2.21;94.54
73085;BME280;62974;49.460;10.892;2023-03-04T04:39:50;98264.38;;;-2.79;96.04
73085;BME280;62974;49.460;10.892;2023-03-04T04:42:20;98261.69;;;-2.42;95.18
73085;BME280;62974;49.460;10.892;2023-03-04T04:44:49;98258.97;;;-2.53;97.45
73085;BME280;62974;49.460;10.892;2023-03-04T04:47:17;98261.75;;;-2.67;98.02
73085;BME280;62974;49.460;10.892;2023-03-04T04:49:45;98261.28;;;-2.48;98.82
73085;BME280;62974;49.460;10.892;2023-03-04T04:52:12;98260.50;;;-2.38;97.79
73085;BME280;62974;49.460;10.892;2023-03-04T04:54:40;98268.78;;;-2.80;99.38
73085;BME280;62974;49.460;10.892;2023-03-04T04:57:07;98258.66;;;-2.48;98.62
73085;BME280;62974;49.460;10.892;2023-03-04T04:59:35;98270.25;;;-2.76;99.46
73085;BME280;62974;49.460;10.892;2023-03-04T05:02:06;98261.63;;;-2.78;99.79
73085;BME280;62974;49.460;10.892;2023-03-04T05:04:34;98263.13;;;-1.77;95.44
73085;BME280;62974;49.460;10.892;2023-03-04T05:07:02;98258.69;;;-1.07;91.22
73085;BME280;62974;49.460;10.892;2023-03-04T05:09:29;98263.59;;;-1.83;91.95
73085;BME280;62974;49.460;10.892;2023-03-04T05:11:57;98264.59;;;-1.97;92.88
73085;BME280;62974;49.460;10.892;2023-03-04T05:14:24;98270.47;;;-2.30;95.12
73085;BME280;62974;49.460;10.892;2023-03-04T05:16:52;98271.81;;;-2.61;98.83
73085;BME280;62974;49.460;10.892;2023-03-04T05:19:21;98269.88;;;-1.97;98.95
73085;BME280;62974;49.460;10.892;2023-03-04T05:21:48;98270.31;;;-2.40;99.56
73085;BME280;62974;49.460;10.892;2023-03-04T05:24:16;98273.34;;;-2.33;99.91
73085;BME280;62974;49.460;10.892;2023-03-04T05:26:43;98276.28;;;-2.38;99.55
73085;BME280;62974;49.460;10.892;2023-03-04T05:29:11;98272.88;;;-2.63;99.80
73085;BME280;62974;49.460;10.892;2023-03-04T05:31:38;98273.81;;;-2.52;100.00
73085;BME280;62974;49.460;10.892;2023-03-04T05:34:06;98273.97;;;-2.29;100.00
73085;BME280;62974;49.460;10.892;2023-03-04T05:36:35;98276.69;;;-2.80;100.00
73085;BME280;62974;49.460;10.892;2023-03-04T05:39:02;98270.63;;;-2.44;100.00
73085;BME280;62974;49.460;10.892;2023-03-04T05:41:30;98265.66;;;-2.23;99.65
73085;BME280;62974;49.460;10.892;2023-03-04T05:43:57;98268.81;;;-2.31;100.00
73085;BME280;62974;49.460;10.892;2023-03-04T05:46:25;98270.75;;;-2.09;99.83
73085;BME280;62974;49.460;10.892;2023-03-04T05:48:53;98276.31;;;-2.50;100.00
73085;BME280;62974;49.460;10.892;2023-03-04T05:51:21;98271.03;;;-1.54;99.69
73085;BME280;62974;49.460;10.892;2023-03-04T05:53:50;98261.38;;;-1.42;95.66
73085;BME280;62974;49.460;10.892;2023-03-04T05:56:19;98270.41;;;-2.05;95.89
73085;BME280;62974;49.460;10.892;2023-03-04T05:58:47;98272.13;;;-1.80;98.09
73085;BME280;62974;49.460;10.892;2023-03-04T06:01:14;98261.47;;;-1.09;95.97
73085;BME280;62974;49.460;10.892;2023-03-04T06:03:42;98278.22;;;-1.79;96.43
73085;BME280;62974;49.460;10.892;2023-03-04T06:06:10;98268.63;;;-1.22;94.33
73085;BME280;62974;49.460;10.892;2023-03-04T06:08:37;98271.34;;;-1.23;94.11
73085;BME280;62974;49.460;10.892;2023-03-04T06:11:06;98275.78;;;-1.82;95.45
73085;BME280;62974;49.460;10.892;2023-03-04T06:13:35;98274.66;;;-1.91;97.98
73085;BME280;62974;49.460;10.892;2023-03-04T06:16:03;98282.78;;;-1.94;99.28
73085;BME280;62974;49.460;10.892;2023-03-04T06:18:31;98289.72;;;-2.17;100.00
73085;BME280;62974;49.460;10.892;2023-03-04T06:20:59;98289.13;;;-1.97;100.00
73085;BME280;62974;49.460;10.892;2023-03-04T06:23:28;98288.78;;;-2.16;100.00
73085;BME280;62974;49.460;10.892;2023-03-04T06:25:58;98281.84;;;-1.69;99.45
73085;BME280;62974;49.460;10.892;2023-03-04T06:28:28;98283.47;;;-2.03;99.66
73085;BME280;62974;49.460;10.892;2023-03-04T06:30:56;98291.41;;;-2.16;100.00
73085;BME280;62974;49.460;10.892;2023-03-04T06:33:24;98290.97;;;-1.86;100.00
73085;BME280;62974;49.460;10.892;2023-03-04T06:35:53;98292.88;;;-1.40;100.00
73085;BME280;62974;49.460;10.892;2023-03-04T06:38:22;98292.09;;;-1.77;98.93
73085;BME280;62974;49.460;10.892;2023-03-04T06:40:50;98301.97;;;-1.68;97.69
73085;BME280;62974;49.460;10.892;2023-03-04T06:43:17;98289.59;;;-1.09;96.55
73085;BME280;62974;49.460;10.892;2023-03-04T06:45:49;98285.13;;;-0.63;91.35
73085;BME280;62974;49.460;10.892;2023-03-04T06:48:17;98286.22;;;-0.65;90.23
73085;BME280;62974;49.460;10.892;2023-03-04T06:50:44;98277.94;;;-0.61;89.46
73085;BME280;62974;49.460;10.892;2023-03-04T06:53:12;98292.44;;;-0.55;89.86
73085;BME280;62974;49.460;10.892;2023-03-04T06:55:39;98304.56;;;-1.10;93.24
73085;BME280;62974;49.460;10.892;2023-03-04T06:58:07;98302.97;;;-0.88;93.20
73085;BME280;62974;49.460;10.892;2023-03-04T07:00:34;98290.88;;;-0.24;88.68
73085;BME280;62974;49.460;10.892;2023-03-04T07:03:03;98294.22;;;-0.11;86.44
73085;BME280;62974;49.460;10.892;2023-03-04T07:05:31;98295.34;;;-0.36;87.48
73085;BME280;62974;49.460;10.892;2023-03-04T07:07:58;98318.59;;;-1.09;91.50
73085;BME280;62974;49.460;10.892;2023-03-04T07:10:26;98321.00;;;-1.65;94.82
73085;BME280;62974;49.460;10.892;2023-03-04T07:12:53;98327.50;;;-1.23;94.97
73085;BME280;62974;49.460;10.892;2023-03-04T07:15:21;98322.63;;;-0.81;93.15
73085;BME280;62974;49.460;10.892;2023-03-04T07:17:49;98315.91;;;-0.63;91.33
73085;BME280;62974;49.460;10.892;2023-03-04T07:20:19;98319.94;;;-1.27;93.50
73085;BME280;62974;49.460;10.892;2023-03-04T07:22:46;98330.66;;;-1.18;94.54
73085;BME280;62974;49.460;10.892;2023-03-04T07:25:14;98331.81;;;-0.87;94.98
73085;BME280;62974;49.460;10.892;2023-03-04T07:27:43;98322.50;;;-0.80;92.96
73085;BME280;62974;49.460;10.892;2023-03-04T07:30:11;98323.78;;;-0.97;92.75
73085;BME280;62974;49.460;10.892;2023-03-04T07:32:38;98327.28;;;-0.85;92.97
73085;BME280;62974;49.460;10.892;2023-03-04T07:35:06;98335.28;;;-0.98;94.39
73085;BME280;62974;49.460;10.892;2023-03-04T07:37:35;98331.22;;;-0.79;93.99
73085;BME280;62974;49.460;10.892;2023-03-04T07:40:06;98315.22;;;-0.21;90.38
73085;BME280;62974;49.460;10.892;2023-03-04T07:42:34;98325.63;;;-0.64;90.88
73085;BME280;62974;49.460;10.892;2023-03-04T07:45:03;98334.44;;;-0.98;92.88
73085;BME280;62974;49.460;10.892;2023-03-04T07:47:30;98331.94;;;-0.88;94.08
73085;BME280;62974;49.460;10.892;2023-03-04T07:49:58;98320.38;;;-0.41;92.26
73085;BME280;62974;49.460;10.892;2023-03-04T07:52:25;98318.44;;;-0.06;87.17
73085;BME280;62974;49.460;10.892;2023-03-04T07:54:54;98312.81;;;-0.24;89.35
73085;BME280;62974;49.460;10.892;2023-03-04T07:57:21;98327.81;;;-0.58;91.02
73085;BME280;62974;49.460;10.892;2023-03-04T07:59:49;98336.47;;;-1.02;93.70
73085;BME280;62974;49.460;10.892;2023-03-04T08:02:16;98327.69;;;-0.56;92.17
73085;BME280;62974;49.460;10.892;2023-03-04T08:04:44;98330.59;;;-1.05;93.83
73085;BME280;62974;49.460;10.892;2023-03-04T08:07:11;98324.00;;;-0.20;91.12
73085;BME280;62974;49.460;10.892;2023-03-04T08:09:39;98330.09;;;-0.31;91.45
73085;BME280;62974;49.460;10.892;2023-03-04T08:12:08;98340.47;;;-0.85;92.61
73085;BME280;62974;49.460;10.892;2023-03-04T08:14:36;98325.31;;;-0.48;92.54
73085;BME280;62974;49.460;10.892;2023-03-04T08:17:03;98332.03;;;-1.01;93.98
73085;BME280;62974;49.460;10.892;2023-03-04T08:19:31;98339.25;;;-0.92;94.81
73085;BME280;62974;49.460;10.892;2023-03-04T08:21:58;98333.78;;;-0.67;94.26
73085;BME280;62974;49.460;10.892;2023-03-04T08:24:26;98339.84;;;-0.88;93.99
73085;BME280;62974;49.460;10.892;2023-03-04T08:26:54;98336.88;;;-0.84;94.39
73085;BME280;62974;49.460;10.892;2023-03-04T08:29:23;98334.75;;;-0.57;94.13
73085;BME280;62974;49.460;10.892;2023-03-04T08:31:52;98333.56;;;-0.53;93.63
73085;BME280;62974;49.460;10.892;2023-03-04T08:34:23;98336.06;;;-0.73;92.85
73085;BME280;62974;49.460;10.892;2023-03-04T08:36:51;98340.69;;;-0.88;93.06
73085;BME280;62974;49.460;10.892;2023-03-04T08:39:18;98344.78;;;-0.84;92.13
73085;BME280;62974;49.460;10.892;2023-03-04T08:41:46;98334.25;;;-0.73;93.26
73085;BME280;62974;49.460;10.892;2023-03-04T08:44:14;98334.16;;;-0.38;91.09
73085;BME280;62974;49.460;10.892;2023-03-04T08:46:43;98324.47;;;-0.49;91.48
73085;BME280;62974;49.460;10.892;2023-03-04T08:49:11;98333.78;;;-0.67;92.51
73085;BME280;62974;49.460;10.892;2023-03-04T08:51:39;98332.97;;;-0.56;91.93
73085;BME280;62974;49.460;10.892;2023-03-04T08:54:07;98318.44;;;-0.39;90.25
73085;BME280;62974;49.460;10.892;2023-03-04T08:56:34;98320.97;;;-0.38;89.63
73085;BME280;62974;49.460;10.892;2023-03-04T08:59:02;98332.00;;;-0.55;88.98
73085;BME280;62974;49.460;10.892;2023-03-04T09:01:30;98328.88;;;-0.60;89.40
73085;BME280;62974;49.460;10.892;2023-03-04T09:03:58;98327.31;;;-0.52;89.53
73085;BME280;62974;49.460;10.892;2023-03-04T09:06:26;98324.91;;;-0.43;88.67
73085;BME280;62974;49.460;10.892;2023-03-04T09:08:53;98334.66;;;-0.44;89.78
73085;BME280;62974;49.460;10.892;2023-03-04T09:11:21;98326.50;;;-0.52;89.72
73085;BME280;62974;49.460;10.892;2023-03-04T09:13:48;98334.28;;;-0.51;89.95
73085;BME280;62974;49.460;10.892;2023-03-04T09:16:17;98332.59;;;-0.52;90.54
73085;BME280;62974;49.460;10.892;2023-03-04T09:18:44;98326.63;;;-0.20;90.51
73085;BME280;62974;49.460;10.892;2023-03-04T09:21:13;98331.16;;;-0.22;89.24
73085;BME280;62974;49.460;10.892;2023-03-04T09:23:41;98330.81;;;-0.07;89.09
73085;BME280;62974;49.460;10.892;2023-03-04T09:26:13;98338.13;;;-0.21;88.93
73085;BME280;62974;49.460;10.892;2023-03-04T09:28:41;98335.16;;;-0.17;89.61
73085;BME280;62974;49.460;10.892;2023-03-04T09:31:14;98338.13;;;-0.10;88.99
73085;BME280;62974;49.460;10.892;2023-03-04T09:33:42;98333.22;;;-0.15;89.01
73085;BME280;62974;49.460;10.892;2023-03-04T09:36:10;98339.56;;;-0.17;88.70
73085;BME280;62974;49.460;10.892;2023-03-04T09:38:40;98332.97;;;-0.01;88.82
73085;BME280;62974;49.460;10.892;2023-03-04T09:41:11;98332.84;;;-0.10;88.22
73085;BME280;62974;49.460;10.892;2023-03-04T09:43:41;98336.09;;;-0.18;88.11
73085;BME280;62974;49.460;10.892;2023-03-04T09:46:15;98339.22;;;-0.02;87.68
73085;BME280;62974;49.460;10.892;2023-03-04T09:48:44;98336.66;;;0.08;87.79
73085;BME280;62974;49.460;10.892;2023-03-04T09:51:19;98335.56;;;0.22;87.22
73085;BME280;62974;49.460;10.892;2023-03-04T09:53:58;98332.00;;;0.12;86.79
73085;BME280;62974;49.460;10.892;2023-03-04T09:56:30;98333.06;;;0.09;86.41
73085;BME280;62974;49.460;10.892;2023-03-04T09:59:04;98325.75;;;0.13;86.81
73085;BME280;62974;49.460;10.892;2023-03-04T10:01:39;98332.69;;;0.25;86.34
73085;BME280;62974;49.460;10.892;2023-03-04T10:04:12;98326.66;;;0.34;85.10
73085;BME280;62974;49.460;10.892;2023-03-04T10:06:40;98323.91;;;0.24;85.12
73085;BME280;62974;49.460;10.892;2023-03-04T10:09:13;98328.34;;;0.35;85.24
73085;BME280;62974;49.460;10.892;2023-03-04T10:11:44;98322.38;;;0.22;84.59
73085;BME280;62974;49.460;10.892;2023-03-04T10:14:32;98327.03;;;0.29;84.90
73085;BME280;62974;49.460;10.892;2023-03-04T10:17:06;98319.94;;;0.30;84.48
73085;BME280;62974;49.460;10.892;2023-03-04T10:19:51;98319.53;;;0.45;84.34
73085;BME280;62974;49.460;10.892;2023-03-04T10:22:26;98317.00;;;0.55;83.97
73085;BME280;62974;49.460;10.892;2023-03-04T10:24:58;98318.16;;;0.62;84.07
73085;BME280;62974;49.460;10.892;2023-03-04T10:27:29;98315.31;;;0.54;83.59
73085;BME280;62974;49.460;10.892;2023-03-04T10:29:59;98313.06;;;0.50;83.10
73085;BME280;62974;49.460;10.892;2023-03-04T10:32:26;98311.84;;;0.54;83.01
73085;BME280;62974;49.460;10.892;2023-03-04T10:34:54;98310.88;;;0.55;83.06
73085;BME280;62974;49.460;10.892;2023-03-04T10:37:21;98312.56;;;0.56;82.89
73085;BME280;62974;49.460;10.892;2023-03-04T10:39:49;98308.81;;;0.58;82.82
73085;BME280;62974;49.460;10.892;2023-03-04T10:42:27;98316.84;;;0.57;82.47
73085;BME280;62974;49.460;10.892;2023-03-04T10:45:03;98315.06;;;0.57;82.80
73085;BME280;62974;49.460;10.892;2023-03-04T10:47:31;98309.16;;;0.65;82.84
73085;BME280;62974;49.460;10.892;2023-03-04T10:50:01;98312.41;;;0.57;82.64
73085;BME280;62974;49.460;10.892;2023-03-04T10:52:34;98307.88;;;0.59;82.50
73085;BME280;62974;49.460;10.892;2023-03-04T10:55:04;98308.41;;;0.74;81.73
73085;BME280;62974;49.460;10.892;2023-03-04T10:57:36;98319.72;;;0.65;81.58
73085;BME280;62974;49.460;10.892;2023-03-04T11:00:23;98307.81;;;0.70;81.90
73085;BME280;62974;49.460;10.892;2023-03-04T11:02:51;98310.78;;;0.77;81.89
73085;BME280;62974;49.460;10.892;2023-03-04T11:05:20;98315.09;;;0.78;82.04
73085;BME280;62974;49.460;10.892;2023-03-04T11:07:49;98308.47;;;0.83;81.44
73085;BME280;62974;49.460;10.892;2023-03-04T11:10:24;98313.41;;;0.77;81.16
73085;BME280;62974;49.460;10.892;2023-03-04T11:12:59;98318.13;;;0.73;81.73
73085;BME280;62974;49.460;10.892;2023-03-04T11:15:29;98313.72;;;0.63;81.50
73085;BME280;62974;49.460;10.892;2023-03-04T11:17:59;98307.66;;;0.40;81.95
73085;BME280;62974;49.460;10.892;2023-03-04T11:20:31;98312.88;;;0.30;82.95
73085;BME280;62974;49.460;10.892;2023-03-04T11:23:03;98318.16;;;0.62;82.79
73085;BME280;62974;49.460;10.892;2023-03-04T11:25:34;98307.13;;;0.57;82.61
73085;BME280;62974;49.460;10.892;2023-03-04T11:28:07;98305.91;;;0.61;83.19
73085;BME280;62974;49.460;10.892;2023-03-04T11:30:43;98302.84;;;0.77;82.83
73085;BME280;62974;49.460;10.892;2023-03-04T11:33:21;98300.78;;;0.80;82.56
73085;BME280;62974;49.460;10.892;2023-03-04T11:35:54;98307.59;;;0.62;82.21
73085;BME280;62974;49.460;10.892;2023-03-04T11:38:28;98305.59;;;0.55;82.24
73085;BME280;62974;49.460;10.892;2023-03-04T11:41:01;98296.19;;;0.62;82.52
73085;BME280;62974;49.460;10.892;2023-03-04T11:43:35;98301.84;;;0.57;82.47
73085;BME280;62974;49.460;10.892;2023-03-04T11:46:27;98289.91;;;0.74;82.36
73085;BME280;62974;49.460;10.892;2023-03-04T11:49:12;98291.53;;;0.54;82.32
73085;BME280;62974;49.460;10.892;2023-03-04T11:51:48;98289.78;;;0.75;83.00
73085;BME280;62974;49.460;10.892;2023-03-04T11:54:25;98281.84;;;0.75;82.69
73085;BME280;62974;49.460;10.892;2023-03-04T11:57:00;98282.09;;;0.72;83.26
73085;BME280;62974;49.460;10.892;2023-03-04T11:59:56;98282.44;;;0.79;83.13
73085;BME280;62974;49.460;10.892;2023-03-04T12:02:38;98262.25;;;0.78;82.70
73085;BME280;62974;49.460;10.892;2023-03-04T12:05:17;98268.28;;;0.69;83.00
73085;BME280;62974;49.460;10.892;2023-03-04T12:10:53;98255.28;;;0.77;82.90
73085;BME280;62974;49.460;10.892;2023-03-04T12:14:01;98244.13;;;0.94;81.99
73085;BME280;62974;49.460;10.892;2023-03-04T12:16:52;98246.13;;;0.81;82.54
73085;BME280;62974;49.460;10.892;2023-03-04T12:19:32;98243.09;;;0.85;82.47
73085;BME280;62974;49.460;10.892;2023-03-04T12:22:17;98242.53;;;0.82;82.56
73085;BME280;62974;49.460;10.892;2023-03-04T12:25:02;98231.56;;;1.07;81.60
73085;BME280;62974;49.460;10.892;2023-03-04T12:27:41;98239.81;;;0.93;81.48
73085;BME280;62974;49.460;10.892;2023-03-04T12:30:22;98232.34;;;0.98;82.18
73085;BME280;62974;49.460;10.892;2023-03-04T12:32:59;98234.25;;;0.96;81.28
73085;BME280;62974;49.460;10.892;2023-03-04T12:35:36;98233.47;;;0.84;81.61
73085;BME280;62974;49.460;10.892;2023-03-04T12:38:44;98226.28;;;0.86;81.84
73085;BME280;62974;49.460;10.892;2023-03-04T12:41:26;98226.59;;;0.93;82.08
73085;BME280;62974;49.460;10.892;2023-03-04T12:44:05;98221.75;;;0.98;82.01
73085;BME280;62974;49.460;10.892;2023-03-04T12:46:43;98222.44;;;1.00;82.13
73085;BME280;62974;49.460;10.892;2023-03-04T12:49:38;98219.56;;;1.03;82.01
73085;BME280;62974;49.460;10.892;2023-03-04T12:52:15;98216.28;;;0.90;82.11
73085;BME280;62974;49.460;10.892;2023-03-04T12:54:49;98216.19;;;1.22;82.06
73085;BME280;62974;49.460;10.892;2023-03-04T12:57:23;98220.91;;;1.18;81.86
73085;BME280;62974;49.460;10.892;2023-03-04T12:59:56;98214.41;;;1.32;81.77
73085;BME280;62974;49.460;10.892;2023-03-04T13:05:25;98211.00;;;1.20;81.44
73085;BME280;62974;49.460;10.892;2023-03-04T13:08:00;98210.25;;;1.09;81.50
73085;BME280;62974;49.460;10.892;2023-03-04T13:10:30;98208.19;;;1.12;82.30
73085;BME280;62974;49.460;10.892;2023-03-04T13:12:58;98206.28;;;1.24;81.60
73085;BME280;62974;49.460;10.892;2023-03-04T13:15:34;98201.41;;;1.19;81.71